Station: EBLB - 13/05/2021 21:48Z (il y a 10 minutes)
EBLB 132148Z AUTO VRB01KT 0650 BR NCD 03/03 Q1007 RED
Vent de direction variable: 1 kt
Visibilité: 650 m (brume)
Pas de nuages détectés
Température: +03ºC - Point de rosée: +03ºC - QNH: 1007 hPa
Code couleur militaire: RED (conditions IMC)